createdAt,value
2018-01-16T00:03:54.420Z,8.00
2018-01-16T00:06:22.658Z,8.10
2018-01-16T00:08:50.929Z,8.00
2018-01-16T00:11:19.164Z,8.00
2018-01-16T00:13:47.391Z,8.00
2018-01-16T00:16:16.797Z,7.90
2018-01-16T00:18:45.029Z,7.90
2018-01-16T00:21:14.391Z,7.90
2018-01-16T00:23:44.031Z,7.90
2018-01-16T00:28:41.697Z,7.90
2018-01-16T00:31:10.239Z,7.90
2018-01-16T00:36:08.672Z,7.80
2018-01-16T00:38:38.141Z,7.80
2018-01-16T00:41:07.154Z,7.80
2018-01-16T00:43:36.150Z,7.80
2018-01-16T00:48:34.288Z,7.80
2018-01-16T00:53:33.275Z,7.80
2018-01-16T00:56:02.971Z,7.80
2018-01-16T00:58:31.193Z,7.80
2018-01-16T01:01:02.096Z,7.80
2018-01-16T01:03:31.085Z,7.80
2018-01-16T01:05:59.312Z,7.80
2018-01-16T01:08:27.571Z,7.80
2018-01-16T01:10:56.569Z,7.70
2018-01-16T01:13:25.924Z,7.80
2018-01-16T01:15:54.200Z,7.80
2018-01-16T01:18:22.438Z,7.70
2018-01-16T01:20:50.675Z,7.70
2018-01-16T01:23:18.937Z,7.80
2018-01-16T01:25:47.924Z,7.80
2018-01-16T01:28:16.146Z,7.80
2018-01-16T01:33:14.287Z,7.80
2018-01-16T01:38:13.145Z,7.80
2018-01-16T01:43:10.821Z,7.70
2018-01-16T01:45:39.078Z,7.70
2018-01-16T01:48:08.100Z,7.70
2018-01-16T01:50:36.358Z,7.70
2018-01-16T01:53:05.796Z,7.70
2018-01-16T01:55:34.452Z,7.70
2018-01-16T01:58:03.472Z,7.60
2018-01-16T02:00:32.530Z,7.60
2018-01-16T02:03:00.749Z,7.60
2018-01-16T02:05:28.972Z,7.60
2018-01-16T02:07:58.509Z,7.60
2018-01-16T02:12:56.213Z,7.60
2018-01-16T02:15:24.468Z,7.60
2018-01-16T02:17:52.749Z,7.50
2018-01-16T02:20:20.977Z,7.60
2018-01-16T02:22:49.236Z,7.60
2018-01-16T02:27:46.917Z,7.70
2018-01-16T02:30:15.172Z,7.70
2018-01-16T02:32:44.168Z,7.70
2018-01-16T02:35:13.905Z,7.60
2018-01-16T02:37:42.160Z,7.70
2018-01-16T02:40:10.389Z,7.70
2018-01-16T02:45:08.538Z,7.70
2018-01-16T02:47:36.800Z,7.70
2018-01-16T02:50:05.833Z,7.70
2018-01-16T02:52:34.110Z,7.80
2018-01-16T02:55:02.389Z,7.70
2018-01-16T02:57:32.140Z,7.70
2018-01-16T03:00:00.738Z,7.80
2018-01-16T03:02:30.473Z,7.70
2018-01-16T03:04:59.469Z,7.70
2018-01-16T03:07:27.740Z,7.80
2018-01-16T03:09:56.741Z,7.80
2018-01-16T03:12:24.971Z,7.80
2018-01-16T03:14:55.672Z,7.80
2018-01-16T03:17:23.903Z,7.70
2018-01-16T03:19:53.789Z,7.80
2018-01-16T03:22:22.091Z,7.80
2018-01-16T03:24:50.308Z,7.80
2018-01-16T03:27:19.672Z,7.80
2018-01-16T03:29:48.704Z,7.80
2018-01-16T03:32:17.700Z,7.80
2018-01-16T03:34:45.928Z,7.80
2018-01-16T03:37:14.192Z,7.70
2018-01-16T03:42:12.286Z,7.60
2018-01-16T03:44:40.684Z,7.60
2018-01-16T03:47:08.922Z,7.50
2018-01-16T03:49:38.677Z,7.50
2018-01-16T03:52:06.960Z,7.50
2018-01-16T03:57:05.460Z,7.50
2018-01-16T03:59:33.757Z,7.40
2018-01-16T04:02:02.038Z,7.50
2018-01-16T04:04:30.272Z,7.40
2018-01-16T04:07:00.042Z,7.40
2018-01-16T04:09:29.411Z,7.40
2018-01-16T04:11:57.635Z,7.40
2018-01-16T04:19:25.988Z,7.40
2018-01-16T04:21:54.268Z,7.40
2018-01-16T04:24:24.007Z,7.40
2018-01-16T04:26:53.036Z,7.40
2018-01-16T04:31:51.608Z,7.40
2018-01-16T04:34:20.593Z,7.50
2018-01-16T04:36:49.610Z,7.50
2018-01-16T04:39:19.348Z,7.60
2018-01-16T04:44:17.864Z,7.60
2018-01-16T04:46:46.104Z,7.60
2018-01-16T04:49:15.153Z,7.60
2018-01-16T04:51:43.389Z,7.60
2018-01-16T04:54:11.616Z,7.50
2018-01-16T04:59:09.761Z,7.50
2018-01-16T05:01:38.022Z,7.50
2018-01-16T05:04:06.315Z,7.50
2018-01-16T05:09:04.453Z,7.60
2018-01-16T05:11:32.741Z,7.50
2018-01-16T05:14:04.112Z,7.50
2018-01-16T05:16:32.770Z,7.50
2018-01-16T05:19:01.025Z,7.50
2018-01-16T05:21:29.257Z,7.50
2018-01-16T05:23:57.524Z,7.50
2018-01-16T05:26:25.752Z,7.50
2018-01-16T05:28:53.988Z,7.50
2018-01-16T05:31:23.031Z,7.50
2018-01-16T05:33:51.261Z,7.50
2018-01-16T05:36:19.508Z,7.50
2018-01-16T05:41:21.333Z,7.50
2018-01-16T05:43:49.577Z,7.50
2018-01-16T05:46:17.849Z,7.50
2018-01-16T05:51:16.059Z,7.50
2018-01-16T05:53:44.324Z,7.50
2018-01-16T05:56:12.581Z,7.50
2018-01-16T05:58:40.813Z,7.60
2018-01-16T06:01:09.045Z,7.60
2018-01-16T06:03:37.319Z,7.60
2018-01-16T06:08:35.401Z,7.60
2018-01-16T06:11:04.172Z,7.70
2018-01-16T06:13:32.816Z,7.70
2018-01-16T06:16:01.040Z,7.80
2018-01-16T06:18:29.299Z,7.80
2018-01-16T06:20:57.540Z,7.80
2018-01-16T06:23:25.767Z,7.80
2018-01-16T06:25:54.034Z,7.80
2018-01-16T06:28:22.257Z,7.70
2018-01-16T06:30:51.620Z,7.80
2018-01-16T06:35:50.122Z,7.70
2018-01-16T06:38:18.360Z,7.70
2018-01-16T06:40:46.657Z,7.70
2018-01-16T06:43:14.909Z,7.60
2018-01-16T06:45:43.140Z,7.70
2018-01-16T06:50:41.648Z,7.70
2018-01-16T06:53:09.880Z,7.70
2018-01-16T06:55:38.917Z,7.80
2018-01-16T06:58:08.279Z,7.70
2018-01-16T07:00:37.268Z,7.80
2018-01-16T07:03:05.533Z,7.80
2018-01-16T07:05:33.799Z,7.80
2018-01-16T07:08:02.057Z,7.80
2018-01-16T07:10:31.473Z,7.60
2018-01-16T07:12:59.697Z,7.50
2018-01-16T07:15:28.689Z,7.20
2018-01-16T07:17:56.955Z,7.10
2018-01-16T07:20:26.321Z,6.90
2018-01-16T07:22:54.548Z,6.80
2018-01-16T07:25:22.856Z,6.70
2018-01-16T07:27:51.094Z,6.60
2018-01-16T07:30:19.344Z,6.60
2018-01-16T07:32:48.377Z,6.60
2018-01-16T07:35:16.625Z,6.60
2018-01-16T07:37:44.886Z,6.60
2018-01-16T07:40:13.148Z,6.70
2018-01-16T07:42:41.374Z,6.70
2018-01-16T07:47:39.288Z,6.80
2018-01-16T07:52:37.376Z,6.80
2018-01-16T07:55:05.660Z,6.90
2018-01-16T07:57:33.929Z,6.90
2018-01-16T08:00:02.168Z,7.00
2018-01-16T08:02:30.444Z,7.00
2018-01-16T08:07:28.892Z,7.00
2018-01-16T08:12:27.012Z,7.10
2018-01-16T08:14:55.249Z,7.10
2018-01-16T08:17:23.509Z,7.10
2018-01-16T08:22:21.968Z,7.20
2018-01-16T08:27:20.829Z,7.20
2018-01-16T08:29:49.076Z,7.30
2018-01-16T08:32:17.350Z,7.30
2018-01-16T08:37:15.857Z,7.40
2018-01-16T08:39:44.517Z,7.40
2018-01-16T08:42:12.746Z,7.50
2018-01-16T08:47:42.353Z,7.60
2018-01-16T08:50:10.576Z,7.60
2018-01-16T08:52:39.568Z,7.80
2018-01-16T08:55:09.339Z,7.80
2018-01-16T08:57:38.341Z,8.00
2018-01-16T09:00:06.572Z,8.10
2018-01-16T09:02:34.876Z,8.10
2018-01-16T09:05:04.632Z,8.10
2018-01-16T09:07:32.877Z,8.20
2018-01-16T09:10:01.160Z,8.20
2018-01-16T09:12:29.393Z,8.20
2018-01-16T09:14:59.133Z,8.10
2018-01-16T09:17:28.164Z,7.90
2018-01-16T09:22:25.861Z,7.60
2018-01-16T09:24:54.121Z,7.50
2018-01-16T09:27:22.355Z,7.40
2018-01-16T09:29:50.576Z,7.40
2018-01-16T09:32:18.855Z,7.40
2018-01-16T09:34:47.869Z,7.40
2018-01-16T09:37:16.875Z,7.30
2018-01-16T09:39:45.181Z,7.10
2018-01-16T09:42:13.421Z,6.80
2018-01-16T09:44:42.408Z,6.40
2018-01-16T09:47:10.684Z,6.10
2018-01-16T09:49:38.899Z,5.80
2018-01-16T09:52:07.125Z,5.70
2018-01-16T09:57:04.884Z,5.30
2018-01-16T09:59:33.899Z,5.20
2018-01-16T10:02:03.315Z,5.20
2018-01-16T10:04:31.532Z,5.20
2018-01-16T10:07:00.525Z,5.20
2018-01-16T10:09:28.776Z,5.10
2018-01-16T10:11:57.002Z,5.10
2018-01-16T10:14:26.357Z,5.10
2018-01-16T10:16:54.601Z,5.00
2018-01-16T10:19:22.821Z,5.00
2018-01-16T10:26:50.424Z,5.00
2018-01-16T10:29:18.657Z,5.00
2018-01-16T10:34:16.770Z,5.10
2018-01-16T10:36:45.023Z,5.20
2018-01-16T10:39:13.284Z,5.20
2018-01-16T10:41:42.280Z,5.30
2018-01-16T10:44:12.012Z,5.30
2018-01-16T10:46:40.433Z,5.30
2018-01-16T10:49:09.788Z,5.40
2018-01-16T10:51:38.018Z,5.40
2018-01-16T10:54:06.424Z,5.50
2018-01-16T10:56:34.672Z,5.40
2018-01-16T10:59:02.908Z,5.50
2018-01-16T11:01:31.954Z,5.40
2018-01-16T11:04:00.940Z,5.50
2018-01-16T11:06:29.936Z,5.60
2018-01-16T11:11:28.412Z,5.70
2018-01-16T11:14:13.770Z,5.70
2018-01-16T11:16:42.759Z,5.70
2018-01-16T11:19:10.992Z,5.70
2018-01-16T11:21:39.260Z,5.70
2018-01-16T11:24:08.991Z,5.60
2018-01-16T11:26:37.212Z,5.70
2018-01-16T11:29:05.472Z,5.70
2018-01-16T11:34:03.928Z,5.80
2018-01-16T11:36:32.193Z,5.90
2018-01-16T11:39:00.430Z,5.90
2018-01-16T11:41:28.693Z,6.00
2018-01-16T11:43:57.002Z,6.10
2018-01-16T11:48:56.245Z,6.20
2018-01-16T11:56:54.415Z,6.40
2018-01-16T11:59:22.649Z,6.30
2018-01-16T12:01:50.908Z,6.30
2018-01-16T12:04:19.150Z,6.40
2018-01-16T12:06:47.395Z,6.50
2018-01-16T12:09:15.693Z,6.50
2018-01-16T12:11:43.935Z,6.50
2018-01-16T12:14:12.155Z,6.50
2018-01-16T12:21:42.312Z,6.90
2018-01-16T12:24:11.685Z,7.00
2018-01-16T12:26:39.916Z,7.20
2018-01-16T12:31:38.041Z,7.60
2018-01-16T12:34:06.271Z,7.80
2018-01-16T12:36:34.540Z,8.00
2018-01-16T12:39:02.785Z,8.20
2018-01-16T12:41:33.132Z,8.20
2018-01-16T12:44:02.548Z,8.20
2018-01-16T12:46:30.780Z,8.00
2018-01-16T12:48:59.025Z,7.90
2018-01-16T12:51:27.312Z,7.80
2018-01-16T12:53:55.564Z,7.60
2018-01-16T12:58:53.707Z,7.10
2018-01-16T13:03:52.160Z,6.80
2018-01-16T13:08:52.168Z,6.70
2018-01-16T13:11:20.810Z,6.60
2018-01-16T13:13:49.856Z,6.60
2018-01-16T13:16:18.084Z,6.60
2018-01-16T13:18:46.308Z,6.70
2018-01-16T13:21:16.079Z,6.90
2018-01-16T13:23:44.332Z,7.10
2018-01-16T13:26:13.722Z,7.30
2018-01-16T13:28:42.764Z,7.50
2018-01-16T13:31:11.748Z,7.70
2018-01-16T13:33:41.486Z,7.90
2018-01-16T13:36:09.749Z,8.10
2018-01-16T13:38:37.986Z,8.30
2018-01-16T13:41:06.215Z,8.40
2018-01-16T13:43:35.256Z,8.40
2018-01-16T13:46:03.497Z,8.30
2018-01-16T13:48:32.488Z,8.20
2018-01-16T13:51:01.522Z,8.10
2018-01-16T13:53:29.774Z,7.90
2018-01-16T13:58:27.928Z,7.60
2018-01-16T14:00:56.172Z,7.40
2018-01-16T14:03:24.809Z,7.20
2018-01-16T14:05:53.072Z,7.20
2018-01-16T14:08:21.306Z,7.20
2018-01-16T14:10:51.292Z,7.20
2018-01-16T14:13:21.168Z,7.30
2018-01-16T14:15:50.054Z,7.30
2018-01-16T14:18:19.257Z,7.30
2018-01-16T14:20:50.330Z,7.30
2018-01-16T14:23:20.218Z,7.20
2018-01-16T14:25:48.972Z,7.30
2018-01-16T14:28:22.488Z,7.20
2018-01-16T14:30:51.513Z,7.20
2018-01-16T14:33:19.737Z,7.20
2018-01-16T14:35:49.481Z,7.20
2018-01-16T14:38:17.760Z,7.20
2018-01-16T14:43:16.233Z,7.10
2018-01-16T14:45:45.155Z,7.20
2018-01-16T14:48:17.594Z,7.20
2018-01-16T14:50:47.364Z,7.20
2018-01-16T14:53:16.749Z,7.20
2018-01-16T14:55:44.998Z,7.20
2018-01-16T14:58:13.264Z,7.20
2018-01-16T15:00:41.496Z,7.30
2018-01-16T15:03:09.732Z,7.10
2018-01-16T15:05:39.527Z,7.00
2018-01-16T15:10:37.257Z,7.00
2018-01-16T15:13:06.421Z,6.80
2018-01-16T15:15:44.355Z,6.80
2018-01-16T15:18:14.403Z,6.90
2018-01-16T15:20:43.414Z,6.80
2018-01-16T15:23:11.641Z,6.70
2018-01-16T15:25:39.900Z,6.80
2018-01-16T15:30:37.994Z,6.70
2018-01-16T15:33:06.257Z,6.60
2018-01-16T15:35:34.485Z,6.60
2018-01-16T15:38:02.708Z,6.50
2018-01-16T15:40:31.009Z,6.40
2018-01-16T15:42:59.272Z,6.40
2018-01-16T15:45:27.509Z,6.40
2018-01-16T15:47:55.790Z,6.30
2018-01-16T15:50:24.813Z,6.30
2018-01-16T15:52:53.044Z,6.20
2018-01-16T15:57:51.164Z,6.10
2018-01-16T16:00:19.384Z,6.00
2018-01-16T16:02:47.649Z,5.80
2018-01-16T16:07:45.728Z,5.70
2018-01-16T16:10:15.128Z,5.70
2018-01-16T16:12:44.521Z,5.60
2018-01-16T16:15:12.782Z,5.60
2018-01-16T16:17:41.053Z,5.60
2018-01-16T16:20:10.412Z,5.50
2018-01-16T16:22:39.036Z,5.40
2018-01-16T16:25:07.301Z,5.40
2018-01-16T16:30:05.372Z,5.30
2018-01-16T16:32:33.628Z,5.30
2018-01-16T16:35:01.860Z,5.20
2018-01-16T16:37:30.104Z,5.20
2018-01-16T16:39:58.385Z,5.10
2018-01-16T16:42:27.385Z,5.20
2018-01-16T16:44:55.631Z,5.20
2018-01-16T16:49:53.384Z,5.10
2018-01-16T16:52:21.609Z,5.00
2018-01-16T16:54:51.436Z,5.00
2018-01-16T16:57:20.065Z,5.00
2018-01-16T16:59:49.098Z,5.10
2018-01-16T17:02:17.303Z,5.00
2018-01-16T17:04:46.673Z,5.00
2018-01-16T17:07:14.903Z,5.00
2018-01-16T17:09:43.332Z,5.00
2018-01-16T17:17:10.916Z,5.00
2018-01-16T17:22:09.373Z,5.10
2018-01-16T17:24:37.656Z,5.10
2018-01-16T17:27:07.389Z,5.10
2018-01-16T17:32:05.524Z,5.10
2018-01-16T17:34:35.614Z,5.00
2018-01-16T17:37:03.873Z,5.00
2018-01-16T17:39:32.525Z,5.00
2018-01-16T17:42:00.746Z,5.00
2018-01-16T17:44:29.022Z,5.00
2018-01-16T17:51:56.999Z,5.10
2018-01-16T17:54:25.214Z,5.20
2018-01-16T17:56:54.615Z,5.20
2018-01-16T17:59:22.897Z,5.30
2018-01-16T18:01:51.124Z,5.30
2018-01-16T18:04:19.345Z,5.30
2018-01-16T18:09:17.060Z,5.30
2018-01-16T18:11:45.672Z,5.20
2018-01-16T18:14:13.954Z,5.20
2018-01-16T18:16:42.184Z,5.20
2018-01-16T18:19:10.413Z,5.10
2018-01-16T18:21:39.825Z,4.90
2018-01-16T18:24:08.045Z,5.00
2018-01-16T18:26:36.665Z,5.00
2018-01-16T18:31:36.717Z,4.90
2018-01-16T18:36:35.208Z,4.90
2018-01-16T18:39:04.975Z,4.90
2018-01-16T18:41:33.781Z,4.90
2018-01-16T18:44:02.844Z,4.90
2018-01-16T18:49:01.297Z,4.90
2018-01-16T18:51:31.064Z,5.00
2018-01-16T18:53:59.308Z,5.00
2018-01-16T18:56:27.546Z,5.00
2018-01-16T18:58:55.864Z,5.00
2018-01-16T19:01:25.605Z,5.00
2018-01-16T19:03:53.831Z,5.00
2018-01-16T19:06:22.085Z,5.10
2018-01-16T19:08:51.083Z,5.10
2018-01-16T19:11:20.436Z,5.20
2018-01-16T19:16:18.171Z,5.10
2018-01-16T19:18:47.176Z,5.10
2018-01-16T19:23:44.918Z,5.10
2018-01-16T19:26:13.944Z,5.20
2018-01-16T19:31:12.842Z,5.10
2018-01-16T19:33:41.101Z,5.10
2018-01-16T19:36:10.121Z,5.10
2018-01-16T19:38:39.107Z,5.10
2018-01-16T19:41:07.341Z,5.00
2018-01-16T19:46:05.812Z,5.00
2018-01-16T19:48:34.049Z,5.00
2018-01-16T19:51:02.355Z,5.10
2018-01-16T19:53:30.626Z,5.10
2018-01-16T19:55:58.864Z,5.10
2018-01-16T19:58:27.148Z,5.00
2018-01-16T20:00:56.171Z,5.00
2018-01-16T20:03:24.412Z,5.00
2018-01-16T20:08:22.566Z,4.90
2018-01-16T20:10:50.818Z,4.90
2018-01-16T20:13:19.469Z,4.90
2018-01-16T20:18:17.149Z,4.90
2018-01-16T20:20:45.437Z,4.90
2018-01-16T20:23:13.678Z,5.00
2018-01-16T20:25:43.434Z,4.90
2018-01-16T20:28:12.130Z,4.90
2018-01-16T20:30:40.357Z,5.00
2018-01-16T20:33:08.622Z,5.00
2018-01-16T20:35:38.451Z,4.90
2018-01-16T20:40:36.900Z,4.90
2018-01-16T20:43:05.925Z,4.90
2018-01-16T20:48:04.464Z,5.00
2018-01-16T20:50:32.775Z,5.00
2018-01-16T20:53:01.039Z,5.10
2018-01-16T20:55:29.281Z,5.10
2018-01-16T20:57:57.645Z,5.10
2018-01-16T21:02:55.460Z,5.20
2018-01-16T21:08:22.203Z,5.20
2018-01-16T21:10:50.468Z,5.30
2018-01-16T21:13:19.858Z,5.30
2018-01-16T21:15:48.164Z,5.20
2018-01-16T21:18:16.376Z,5.30
2018-01-16T21:20:45.806Z,5.40
2018-01-16T21:23:14.172Z,5.40
2018-01-16T21:25:43.262Z,5.30
2018-01-16T21:28:11.869Z,5.30
2018-01-16T21:30:40.162Z,5.30
2018-01-16T21:33:10.189Z,5.30
2018-01-16T21:35:39.241Z,5.30
2018-01-16T21:38:07.512Z,5.30
2018-01-16T21:40:36.564Z,5.30
2018-01-16T21:43:04.814Z,5.30
2018-01-16T21:45:33.086Z,5.20
2018-01-16T21:48:01.284Z,5.30
2018-01-16T21:50:29.580Z,5.30
2018-01-16T21:52:57.873Z,5.30
2018-01-16T21:55:26.136Z,5.30
2018-01-16T21:57:56.100Z,5.30
2018-01-16T22:00:24.875Z,5.20
2018-01-16T22:02:53.944Z,5.30
2018-01-16T22:05:22.916Z,5.30
2018-01-16T22:07:51.196Z,5.30
2018-01-16T22:10:19.821Z,5.30
2018-01-16T22:12:48.049Z,5.30
2018-01-16T22:15:16.384Z,5.20
2018-01-16T22:17:44.673Z,5.20
2018-01-16T22:20:12.933Z,5.20
2018-01-16T22:22:41.248Z,5.30
2018-01-16T22:25:09.465Z,5.20
2018-01-16T22:27:37.692Z,5.20
2018-01-16T22:30:05.981Z,5.20
2018-01-16T22:32:35.386Z,5.30
2018-01-16T22:35:04.420Z,5.30
2018-01-16T22:37:33.836Z,5.30
2018-01-16T22:42:32.346Z,5.40
2018-01-16T22:47:30.848Z,5.40
2018-01-16T22:49:59.861Z,5.40
2018-01-16T22:52:28.168Z,5.40
2018-01-16T22:54:56.418Z,5.40
2018-01-16T22:57:24.657Z,5.40
2018-01-16T22:59:54.448Z,5.50
2018-01-16T23:02:22.680Z,5.50
2018-01-16T23:04:52.431Z,5.50
2018-01-16T23:07:20.715Z,5.50
2018-01-16T23:09:49.742Z,5.50
2018-01-16T23:12:17.941Z,5.50
2018-01-16T23:14:47.367Z,5.50
2018-01-16T23:17:15.596Z,5.50
2018-01-16T23:19:43.828Z,5.50
2018-01-16T23:22:12.110Z,5.60
2018-01-16T23:24:40.333Z,5.60
2018-01-16T23:27:08.587Z,5.60
2018-01-16T23:29:37.992Z,5.50
2018-01-16T23:32:07.028Z,5.50
2018-01-16T23:34:36.056Z,5.50
2018-01-16T23:37:05.072Z,5.50
2018-01-16T23:42:04.386Z,5.50
2018-01-16T23:44:32.676Z,5.60
2018-01-16T23:47:00.923Z,5.60
2018-01-16T23:49:30.653Z,5.60
2018-01-16T23:51:59.680Z,5.60
2018-01-16T23:56:57.364Z,5.50
2018-01-16T23:59:25.632Z,5.60
